Big Island, Louisiana
Current Conditions -  °F | °C
As of 12:53 AM on Thursday 23 Oct 2014 (Local Time) from KESF Reporting Station
Clear Clear  
Wind Chill: 55°   Ceiling: Unl
Heat Index: 55°   Visibility: 10mi
Dew Point: 49°   Wind: 3mph
Humidity: 80%   Direction: NA
Pressure: 30.13"   Gusts: NA
Location:  31.3606°N, 92.2142°W
Report Text: KESF 230553Z AUTO VRB03KT 10SM CLR 13/09 A3013 RMK AO2 SLP200 T01280094 10156 20106 402560106 50002
Loading
Personal Weather Stations






























Interactive Weather Map
Tropical Storm Tracking
New forecast layout! Learn more

10-Day Weather Forecast

Advertisements
Track Severe Weather on mobile